createdAt,value
2022-12-14T00:01:49.563Z,91.47
2022-12-14T00:04:17.575Z,73.25
2022-12-14T00:06:45.036Z,74.40
2022-12-14T00:09:12.418Z,61.95
2022-12-14T00:11:40.170Z,58.97
2022-12-14T00:14:07.593Z,59.53
2022-12-14T00:16:35.341Z,66.07
2022-12-14T00:19:05.280Z,54.15
2022-12-14T00:21:33.517Z,52.25
2022-12-14T00:24:00.941Z,50.45
2022-12-14T00:26:31.427Z,53.38
2022-12-14T00:29:00.582Z,53.70
2022-12-14T00:31:28.290Z,50.70
2022-12-14T00:33:55.968Z,52.13
2022-12-14T00:36:23.633Z,48.53
2022-12-14T00:38:51.048Z,49.03
2022-12-14T00:41:19.608Z,45.08
2022-12-14T00:43:49.743Z,44.60
2022-12-14T00:46:17.974Z,47.53
2022-12-14T00:48:45.895Z,44.47
2022-12-14T00:51:15.090Z,51.10
2022-12-14T00:53:44.601Z,46.37
2022-12-14T00:56:12.436Z,47.95
2022-12-14T00:58:39.799Z,49.83
2022-12-14T01:01:12.516Z,48.35
2022-12-14T01:03:40.532Z,46.65
2022-12-14T01:06:17.124Z,50.85
2022-12-14T01:08:44.826Z,43.28
2022-12-14T01:11:12.881Z,51.75
2022-12-14T01:13:41.338Z,47.22
2022-12-14T01:16:11.680Z,47.62
2022-12-14T01:18:40.110Z,48.78
2022-12-14T01:21:11.495Z,61.40
2022-12-14T01:23:39.417Z,51.28
2022-12-14T01:26:07.008Z,47.85
2022-12-14T01:28:35.112Z,48.87
2022-12-14T01:31:23.725Z,46.67
2022-12-14T01:33:51.147Z,49.53
2022-12-14T01:36:25.223Z,50.33
2022-12-14T01:38:58.323Z,50.95
2022-12-14T01:41:31.618Z,50.40
2022-12-14T01:44:09.351Z,47.72
2022-12-14T01:46:41.125Z,50.08
2022-12-14T01:49:33.017Z,48.38
2022-12-14T01:52:21.574Z,53.38
2022-12-14T01:54:56.573Z,51.20
2022-12-14T01:57:47.436Z,48.22
2022-12-14T02:00:15.270Z,50.58
2022-12-14T02:02:48.452Z,48.00
2022-12-14T02:05:17.290Z,48.95
2022-12-14T02:07:49.171Z,49.50
2022-12-14T02:10:16.733Z,47.35
2022-12-14T02:12:48.395Z,51.80
2022-12-14T02:15:16.460Z,49.38
2022-12-14T02:17:45.468Z,53.25
2022-12-14T02:20:13.885Z,53.80
2022-12-14T02:22:54.056Z,51.53
2022-12-14T02:25:33.887Z,49.33
2022-12-14T02:28:29.487Z,50.95
2022-12-14T02:31:26.345Z,49.53
2022-12-14T02:33:58.468Z,53.03
2022-12-14T02:36:39.070Z,53.25
2022-12-14T02:39:34.665Z,45.65
2022-12-14T02:42:13.648Z,50.35
2022-12-14T02:44:44.350Z,51.58
2022-12-14T02:47:26.231Z,50.60
2022-12-14T02:49:59.846Z,47.33
2022-12-14T02:52:52.287Z,45.47
2022-12-14T02:55:28.267Z,48.65
2022-12-14T02:58:01.403Z,51.97
2022-12-14T03:00:32.332Z,46.53
2022-12-14T03:03:00.837Z,45.28
2022-12-14T03:05:28.656Z,44.75
2022-12-14T03:07:58.172Z,43.58
2022-12-14T03:10:44.221Z,43.10
2022-12-14T03:13:31.432Z,53.78
2022-12-14T03:16:03.140Z,45.05
2022-12-14T03:18:36.977Z,49.20
2022-12-14T03:21:06.524Z,41.88
2022-12-14T03:23:40.800Z,47.25
2022-12-14T03:26:19.440Z,46.90
2022-12-14T03:28:50.973Z,46.83
2022-12-14T03:31:35.113Z,42.83
2022-12-14T03:34:05.329Z,45.27
2022-12-14T03:36:54.609Z,45.10
2022-12-14T03:39:27.637Z,48.20
2022-12-14T03:42:17.920Z,43.33
2022-12-14T03:44:54.384Z,47.88
2022-12-14T03:47:52.623Z,45.45
2022-12-14T03:50:51.915Z,54.65
2022-12-14T03:53:25.363Z,49.95
2022-12-14T03:56:10.953Z,54.00
2022-12-14T04:02:04.071Z,62.53
2022-12-14T04:04:34.431Z,55.67
2022-12-14T04:07:15.215Z,51.00
2022-12-14T04:09:49.075Z,56.95
2022-12-14T04:12:38.548Z,57.92
2022-12-14T04:15:32.875Z,53.10
2022-12-14T04:18:22.928Z,55.22
2022-12-14T04:20:55.359Z,49.78
2022-12-14T04:23:49.947Z,51.50
2022-12-14T04:26:19.761Z,46.40
2022-12-14T04:29:27.249Z,54.45
2022-12-14T04:32:04.535Z,58.75
2022-12-14T04:34:33.537Z,51.88
2022-12-14T04:37:04.577Z,51.10
2022-12-14T04:39:53.651Z,59.22
2022-12-14T04:42:31.432Z,61.75
2022-12-14T04:45:06.559Z,50.90
2022-12-14T04:47:37.083Z,51.90
2022-12-14T04:50:27.286Z,51.88
2022-12-14T04:52:59.718Z,60.03
2022-12-14T04:55:30.145Z,58.58
2022-12-14T04:58:15.113Z,52.30
2022-12-14T05:00:51.780Z,45.88
2022-12-14T05:03:32.365Z,46.37
2022-12-14T05:06:09.569Z,50.65
2022-12-14T05:09:02.273Z,50.38
2022-12-14T05:11:53.690Z,49.22
2022-12-14T05:14:27.077Z,45.72
2022-12-14T05:16:54.544Z,45.58
2022-12-14T05:19:26.380Z,43.13
2022-12-14T05:21:54.428Z,48.35
2022-12-14T05:24:22.150Z,43.95
2022-12-14T05:26:49.524Z,46.05
2022-12-14T05:29:17.806Z,52.95
2022-12-14T05:31:49.457Z,49.95
2022-12-14T05:34:17.685Z,39.05
2022-12-14T05:36:45.327Z,46.60
2022-12-14T05:39:13.270Z,43.38
2022-12-14T05:41:40.727Z,39.95
2022-12-14T05:44:08.654Z,38.67
2022-12-14T05:46:36.049Z,36.75
2022-12-14T05:49:03.582Z,40.83
2022-12-14T05:51:31.232Z,37.97
2022-12-14T05:53:59.054Z,38.50
2022-12-14T05:56:26.534Z,37.65
2022-12-14T05:58:54.472Z,35.03
2022-12-14T06:01:21.992Z,34.45
2022-12-14T06:03:53.497Z,35.95
2022-12-14T06:06:21.343Z,37.05
2022-12-14T06:08:48.902Z,34.67
2022-12-14T06:11:19.199Z,35.97
2022-12-14T06:13:47.315Z,30.20
2022-12-14T06:16:23.093Z,35.65
2022-12-14T06:18:56.104Z,33.63
2022-12-14T06:21:27.470Z,36.63
2022-12-14T06:23:56.057Z,34.50
2022-12-14T06:26:24.112Z,35.33
2022-12-14T06:28:51.573Z,37.30
2022-12-14T06:31:21.781Z,34.53
2022-12-14T06:33:49.931Z,31.62
2022-12-14T06:36:21.252Z,38.53
2022-12-14T06:38:50.087Z,36.50
2022-12-14T06:41:17.764Z,29.77
2022-12-14T06:43:45.259Z,31.17
2022-12-14T06:46:19.462Z,28.12
2022-12-14T06:48:54.843Z,29.75
2022-12-14T06:51:23.776Z,34.25
2022-12-14T06:53:52.179Z,33.67
2022-12-14T06:56:20.577Z,32.78
2022-12-14T06:58:48.356Z,29.67
2022-12-14T07:01:18.541Z,32.40
2022-12-14T07:03:54.820Z,32.47
2022-12-14T07:06:23.923Z,32.10
2022-12-14T07:08:56.356Z,30.05
2022-12-14T07:11:25.185Z,30.05
2022-12-14T07:13:53.545Z,29.87
2022-12-14T07:16:23.712Z,29.50
2022-12-14T07:18:52.040Z,32.17
2022-12-14T07:21:20.655Z,27.37
2022-12-14T07:23:48.749Z,35.78
2022-12-14T07:26:19.864Z,29.77
2022-12-14T07:28:47.625Z,29.67
2022-12-14T07:31:17.503Z,28.08
2022-12-14T07:33:45.731Z,33.05
2022-12-14T07:36:15.920Z,30.25
2022-12-14T07:38:44.585Z,30.62
2022-12-14T07:41:20.399Z,29.98
2022-12-14T07:43:49.923Z,30.33
2022-12-14T07:46:20.602Z,34.22
2022-12-14T07:48:50.550Z,31.15
2022-12-14T07:51:20.671Z,32.78
2022-12-14T07:53:48.885Z,35.53
2022-12-14T07:56:18.864Z,36.10
2022-12-14T07:58:46.807Z,38.55
2022-12-14T08:01:19.862Z,35.55
2022-12-14T08:03:59.926Z,34.47
2022-12-14T08:06:29.381Z,31.65
2022-12-14T08:08:57.685Z,32.10
2022-12-14T08:11:25.437Z,35.03
2022-12-14T08:13:56.782Z,36.38
2022-12-14T08:16:25.556Z,33.50
2022-12-14T08:18:54.419Z,31.58
2022-12-14T08:21:23.118Z,35.45
2022-12-14T08:23:51.529Z,39.35
2022-12-14T08:26:19.441Z,36.72
2022-12-14T08:28:47.671Z,38.20
2022-12-14T08:31:20.515Z,35.83
2022-12-14T08:33:48.851Z,36.58
2022-12-14T08:36:22.361Z,36.83
2022-12-14T08:38:57.958Z,38.90
2022-12-14T08:41:26.734Z,36.92
2022-12-14T08:43:56.857Z,39.13
2022-12-14T08:46:25.308Z,39.10
2022-12-14T08:48:55.003Z,34.33
2022-12-14T08:51:24.241Z,38.97
2022-12-14T08:53:52.393Z,37.00
2022-12-14T08:56:25.548Z,35.15
2022-12-14T08:58:53.533Z,35.75
2022-12-14T09:01:32.046Z,35.95
2022-12-14T09:04:08.389Z,41.53
2022-12-14T09:06:38.816Z,39.53
2022-12-14T09:09:13.308Z,38.72
2022-12-14T09:11:44.617Z,35.08
2022-12-14T09:14:12.088Z,35.33
2022-12-14T09:16:40.354Z,36.17
2022-12-14T09:19:08.236Z,32.35
2022-12-14T09:21:35.639Z,34.83
2022-12-14T09:24:03.159Z,38.90
2022-12-14T09:26:30.835Z,33.55
2022-12-14T09:28:58.267Z,35.92
2022-12-14T09:31:26.811Z,30.30
2022-12-14T09:33:55.125Z,34.33
2022-12-14T09:36:25.378Z,32.78
2022-12-14T09:38:55.369Z,33.80
2022-12-14T09:41:30.244Z,29.98
2022-12-14T09:44:25.365Z,34.47
2022-12-14T09:47:11.178Z,34.38
2022-12-14T09:49:54.828Z,28.48
2022-12-14T09:52:46.577Z,32.90
2022-12-14T09:55:45.695Z,30.48
2022-12-14T09:58:18.645Z,28.90
2022-12-14T10:01:05.579Z,31.23
2022-12-14T10:03:59.325Z,28.98
2022-12-14T10:06:39.563Z,30.67
2022-12-14T10:09:10.221Z,28.48
2022-12-14T10:11:55.822Z,35.42
2022-12-14T10:14:44.567Z,36.40
2022-12-14T10:17:17.846Z,31.30
2022-12-14T10:19:56.241Z,30.60
2022-12-14T10:22:30.647Z,33.03
2022-12-14T10:27:34.168Z,34.90
2022-12-14T10:30:17.454Z,29.90
2022-12-14T10:32:49.296Z,32.72
2022-12-14T10:35:27.431Z,31.98
2022-12-14T10:38:12.485Z,30.45
2022-12-14T10:43:50.823Z,29.80
2022-12-14T10:46:23.752Z,28.80
2022-12-14T10:49:10.868Z,28.87
2022-12-14T10:51:48.992Z,30.35
2022-12-14T10:54:27.246Z,28.02
2022-12-14T10:56:55.349Z,28.75
2022-12-14T10:59:25.368Z,27.37
2022-12-14T11:01:59.304Z,30.35
2022-12-14T11:04:33.084Z,32.35
2022-12-14T11:07:03.813Z,28.25
2022-12-14T11:09:32.007Z,25.98
2022-12-14T11:12:05.476Z,27.98
2022-12-14T11:14:34.529Z,30.05
2022-12-14T11:17:02.082Z,25.83
2022-12-14T11:19:30.048Z,30.95
2022-12-14T11:22:18.675Z,25.75
2022-12-14T11:24:49.578Z,29.42
2022-12-14T11:27:21.026Z,32.08
2022-12-14T11:29:49.430Z,29.87
2022-12-14T11:32:24.743Z,26.08
2022-12-14T11:34:55.507Z,28.45
2022-12-14T11:37:26.323Z,29.67
2022-12-14T11:39:59.385Z,28.02
2022-12-14T11:42:27.368Z,32.83
2022-12-14T11:44:55.087Z,28.20
2022-12-14T11:47:24.080Z,34.92
2022-12-14T11:49:54.473Z,28.08
2022-12-14T11:52:23.272Z,28.87
2022-12-14T11:54:54.329Z,32.63
2022-12-14T11:57:48.174Z,30.98
2022-12-14T12:00:25.732Z,30.00
2022-12-14T12:03:06.661Z,29.87
2022-12-14T12:05:39.617Z,32.13
2022-12-14T12:08:19.219Z,25.77
2022-12-14T12:10:50.115Z,32.35
2022-12-14T12:13:20.867Z,28.30
2022-12-14T12:15:51.248Z,27.60
2022-12-14T12:18:26.540Z,27.00
2022-12-14T12:21:02.168Z,27.65
2022-12-14T12:23:40.892Z,30.33
2022-12-14T12:26:25.067Z,27.92
2022-12-14T12:29:02.376Z,32.40
2022-12-14T12:31:34.862Z,33.47
2022-12-14T12:34:06.392Z,27.35
2022-12-14T12:36:33.787Z,28.62
2022-12-14T12:39:05.905Z,27.90
2022-12-14T12:41:40.568Z,28.20
2022-12-14T12:44:35.855Z,31.62
2022-12-14T12:47:31.203Z,28.67
2022-12-14T12:50:06.563Z,31.87
2022-12-14T12:52:38.585Z,28.48
2022-12-14T12:55:15.184Z,29.92
2022-12-14T12:57:46.225Z,28.50
2022-12-14T13:00:17.362Z,33.17
2022-12-14T13:02:55.398Z,30.33
2022-12-14T13:08:33.811Z,29.20
2022-12-14T13:14:15.252Z,29.50
2022-12-14T13:16:43.197Z,25.60
2022-12-14T13:22:31.515Z,30.20
2022-12-14T13:25:18.248Z,30.12
2022-12-14T13:28:01.184Z,28.58
2022-12-14T13:30:39.778Z,27.95
2022-12-14T13:33:28.702Z,44.65
2022-12-14T13:36:21.212Z,31.65
2022-12-14T13:39:19.388Z,29.95
2022-12-14T13:42:05.771Z,30.08
2022-12-14T13:44:46.491Z,29.70
2022-12-14T13:47:21.821Z,30.27
2022-12-14T13:50:26.712Z,28.08
2022-12-14T13:52:45.079Z,28.92
2022-12-14T13:55:28.989Z,36.35
2022-12-14T13:58:15.597Z,32.80
2022-12-14T14:00:46.576Z,33.60
2022-12-14T14:03:36.475Z,31.70
2022-12-14T14:06:13.037Z,31.87
2022-12-14T14:08:42.800Z,34.55
2022-12-14T14:11:38.638Z,28.55
2022-12-14T14:14:12.413Z,30.20
2022-12-14T14:16:44.994Z,31.20
2022-12-14T14:19:24.108Z,30.50
2022-12-14T14:22:26.008Z,29.83
2022-12-14T14:25:34.907Z,30.02
2022-12-14T14:28:03.961Z,32.58
2022-12-14T14:30:36.177Z,29.42
2022-12-14T14:33:43.107Z,32.42
2022-12-14T14:35:51.776Z,29.70
2022-12-14T14:38:31.360Z,26.45
2022-12-14T14:41:17.680Z,29.92
2022-12-14T14:43:54.467Z,29.20
2022-12-14T14:46:34.149Z,30.52
2022-12-14T14:49:01.635Z,29.52
2022-12-14T14:51:31.027Z,30.17
2022-12-14T14:54:46.135Z,29.15
2022-12-14T14:57:36.059Z,33.05
2022-12-14T15:00:05.134Z,29.00
2022-12-14T15:02:40.134Z,31.17
2022-12-14T15:08:32.726Z,30.00
2022-12-14T15:11:04.827Z,30.92
2022-12-14T15:13:44.185Z,31.37
2022-12-14T15:16:41.228Z,34.63
2022-12-14T15:19:25.642Z,34.92
2022-12-14T15:22:13.777Z,41.83
2022-12-14T15:24:43.544Z,35.70
2022-12-14T15:27:26.416Z,33.13
2022-12-14T15:30:12.439Z,34.03
2022-12-14T15:32:47.448Z,36.22
2022-12-14T15:35:18.079Z,34.47
2022-12-14T15:37:58.024Z,32.10
2022-12-14T15:40:32.316Z,32.38
2022-12-14T15:43:16.117Z,34.17
2022-12-14T15:45:46.188Z,33.03
2022-12-14T15:48:27.690Z,38.10
2022-12-14T15:51:03.043Z,37.00
2022-12-14T15:53:34.420Z,34.70
2022-12-14T15:56:11.825Z,33.38
2022-12-14T15:58:40.877Z,32.63
2022-12-14T16:01:24.906Z,33.63
2022-12-14T16:03:54.686Z,37.63
2022-12-14T16:06:23.572Z,36.17
2022-12-14T16:09:04.246Z,34.47
2022-12-14T16:11:36.022Z,36.00
2022-12-14T16:14:09.817Z,32.85
2022-12-14T16:16:37.669Z,32.30
2022-12-14T16:19:25.858Z,30.58
2022-12-14T16:22:10.139Z,30.55
2022-12-14T16:24:38.510Z,34.22
2022-12-14T16:27:17.900Z,29.33
2022-12-14T16:30:16.911Z,33.03
2022-12-14T16:32:49.838Z,33.30
2022-12-14T16:35:20.134Z,32.55
2022-12-14T16:37:51.285Z,35.55
2022-12-14T16:40:33.784Z,33.83
2022-12-14T16:43:02.348Z,32.33
2022-12-14T16:45:36.120Z,31.55
2022-12-14T16:48:09.147Z,31.98
2022-12-14T16:53:29.579Z,25.65
2022-12-14T16:56:19.620Z,37.03
2022-12-14T16:59:03.619Z,36.08
2022-12-14T17:01:42.044Z,35.38
2022-12-14T17:04:11.523Z,32.40
2022-12-14T17:06:54.298Z,34.47
2022-12-14T17:09:24.981Z,29.83
2022-12-14T17:11:54.632Z,31.65
2022-12-14T17:14:23.924Z,30.33
2022-12-14T17:17:00.653Z,30.52
2022-12-14T17:19:34.722Z,30.52
2022-12-14T17:22:04.432Z,30.27
2022-12-14T17:24:33.394Z,30.62
2022-12-14T17:27:02.400Z,30.40
2022-12-14T17:29:31.272Z,36.33
2022-12-14T17:32:02.851Z,32.97
2022-12-14T17:34:31.049Z,31.20
2022-12-14T17:37:03.239Z,34.60
2022-12-14T17:39:35.715Z,32.05
2022-12-14T17:42:06.470Z,33.40
2022-12-14T17:44:34.985Z,30.08
2022-12-14T17:47:04.015Z,33.00
2022-12-14T17:49:36.396Z,28.42
2022-12-14T17:52:07.735Z,30.33
2022-12-14T17:54:36.018Z,30.33
2022-12-14T17:57:07.394Z,30.27
2022-12-14T17:59:35.316Z,32.40
2022-12-14T18:02:03.135Z,30.48
2022-12-14T18:04:34.674Z,30.17
2022-12-14T18:07:03.731Z,31.67
2022-12-14T18:09:32.350Z,31.58
2022-12-14T18:12:22.601Z,33.42
2022-12-14T18:14:52.446Z,32.30
2022-12-14T18:17:20.489Z,37.97
2022-12-14T18:19:50.227Z,34.92
2022-12-14T18:22:19.106Z,38.67
2022-12-14T18:24:49.152Z,32.45
2022-12-14T18:27:19.200Z,33.00
2022-12-14T18:29:47.706Z,30.48
2022-12-14T18:32:16.610Z,29.40
2022-12-14T18:34:46.814Z,29.95
2022-12-14T18:37:18.710Z,31.17
2022-12-14T18:39:51.360Z,30.20
2022-12-14T18:42:22.620Z,29.35
2022-12-14T18:44:53.469Z,29.20
2022-12-14T18:47:41.052Z,33.38
2022-12-14T18:50:14.811Z,28.83
2022-12-14T18:52:45.401Z,28.90
2022-12-14T18:55:18.913Z,32.13
2022-12-14T18:57:49.495Z,30.85
2022-12-14T19:00:21.215Z,26.48
2022-12-14T19:02:50.526Z,27.65
2022-12-14T19:05:26.109Z,30.40
2022-12-14T19:08:00.454Z,32.38
2022-12-14T19:10:31.789Z,31.50
2022-12-14T19:13:01.277Z,29.52
2022-12-14T19:15:33.399Z,32.78
2022-12-14T19:18:05.337Z,31.25
2022-12-14T19:20:34.653Z,29.90
2022-12-14T19:23:05.593Z,47.17
2022-12-14T19:25:35.296Z,29.85
2022-12-14T19:30:58.653Z,36.40
2022-12-14T19:33:30.521Z,33.72
2022-12-14T19:36:00.925Z,31.12
2022-12-14T19:38:32.384Z,31.05
2022-12-14T19:41:04.691Z,32.35
2022-12-14T19:43:35.063Z,31.83
2022-12-14T19:46:14.831Z,31.55
2022-12-14T19:48:45.285Z,32.70
2022-12-14T19:51:15.883Z,32.10
2022-12-14T19:53:48.849Z,31.27
2022-12-14T19:56:19.281Z,33.75
2022-12-14T19:58:54.130Z,29.75
2022-12-14T20:01:40.727Z,30.92
2022-12-14T20:04:20.233Z,32.38
2022-12-14T20:06:52.297Z,30.85
2022-12-14T20:09:25.179Z,30.85
2022-12-14T20:11:54.239Z,31.58
2022-12-14T20:14:23.757Z,34.00
2022-12-14T20:16:53.078Z,31.92
2022-12-14T20:19:25.801Z,27.00
2022-12-14T20:21:55.200Z,32.90
2022-12-14T20:24:23.719Z,31.90
2022-12-14T20:26:55.041Z,28.20
2022-12-14T20:29:25.031Z,30.58
2022-12-14T20:31:55.870Z,31.33
2022-12-14T20:34:29.672Z,29.10
2022-12-14T20:36:59.511Z,31.12
2022-12-14T20:39:28.893Z,30.58
2022-12-14T20:41:58.234Z,29.25
2022-12-14T20:44:27.033Z,31.15
2022-12-14T20:46:57.313Z,29.92
2022-12-14T20:49:31.594Z,32.88
2022-12-14T20:52:00.672Z,28.35
2022-12-14T20:54:29.982Z,28.60
2022-12-14T20:57:01.177Z,31.17
2022-12-14T20:59:30.182Z,30.55
2022-12-14T21:01:59.074Z,31.67
2022-12-14T21:04:29.861Z,31.85
2022-12-14T21:06:58.552Z,31.05
2022-12-14T21:09:27.015Z,30.75
2022-12-14T21:12:13.641Z,27.83
2022-12-14T21:14:48.117Z,36.47
2022-12-14T21:17:16.657Z,31.05
2022-12-14T21:19:44.803Z,32.55
2022-12-14T21:22:16.749Z,33.10
2022-12-14T21:25:03.134Z,29.90
2022-12-14T21:27:33.463Z,29.60
2022-12-14T21:30:01.880Z,35.83
2022-12-14T21:32:31.192Z,31.55
2022-12-14T21:34:58.680Z,31.60
2022-12-14T21:37:27.639Z,33.33
2022-12-14T21:39:55.899Z,34.58
2022-12-14T21:42:24.434Z,49.40
2022-12-14T21:44:52.963Z,36.85
2022-12-14T21:47:28.381Z,33.35
2022-12-14T21:49:56.459Z,35.33
2022-12-14T21:52:26.327Z,35.22
2022-12-14T21:54:53.745Z,45.03
2022-12-14T21:57:42.031Z,69.72
2022-12-14T22:00:10.547Z,48.87
2022-12-14T22:02:39.720Z,38.13
2022-12-14T22:05:07.930Z,33.28
2022-12-14T22:07:35.289Z,37.88
2022-12-14T22:10:03.018Z,35.15
2022-12-14T22:12:30.646Z,38.58
2022-12-14T22:14:58.031Z,36.58
2022-12-14T22:17:25.444Z,37.90
2022-12-14T22:19:55.069Z,34.60
2022-12-14T22:22:22.800Z,38.13
2022-12-14T22:24:51.367Z,34.13
2022-12-14T22:27:19.855Z,36.45
2022-12-14T22:29:47.293Z,37.97
2022-12-14T22:32:15.605Z,36.20
2022-12-14T22:34:43.407Z,36.97
2022-12-14T22:37:14.562Z,37.97
2022-12-14T22:39:42.027Z,36.50
2022-12-14T22:42:10.530Z,34.78
2022-12-14T22:44:38.301Z,33.60
2022-12-14T22:47:05.760Z,36.15
2022-12-14T22:49:33.392Z,33.78
2022-12-14T22:52:00.765Z,34.15
2022-12-14T22:54:28.143Z,39.63
2022-12-14T22:57:13.852Z,36.00
2022-12-14T22:59:45.283Z,36.30
2022-12-14T23:02:13.107Z,36.78
2022-12-14T23:04:40.719Z,36.13
2022-12-14T23:07:08.068Z,33.83
2022-12-14T23:09:54.426Z,35.40
2022-12-14T23:12:40.778Z,34.15
2022-12-14T23:15:27.239Z,33.17
2022-12-14T23:18:19.171Z,32.88
2022-12-14T23:21:05.531Z,37.60
2022-12-14T23:23:51.326Z,36.13
2022-12-14T23:26:37.777Z,36.75
2022-12-14T23:29:23.603Z,35.05
2022-12-14T23:32:09.540Z,35.80
2022-12-14T23:34:55.692Z,30.90
2022-12-14T23:37:42.072Z,38.22
2022-12-14T23:40:28.631Z,36.20
2022-12-14T23:43:14.812Z,33.85
2022-12-14T23:46:01.791Z,33.80
2022-12-14T23:48:47.906Z,37.25
2022-12-14T23:51:34.021Z,38.58
2022-12-14T23:54:20.295Z,41.55
2022-12-14T23:57:06.350Z,37.78
2022-12-14T23:59:54.802Z,36.25
